sensor_id;sensor_type;location;lat;lon;timestamp;pressure;altitude;pressure_sealevel;temperature
13304;BMP280;6720;51.958;4.540;2022-12-29T00:01:13;99665.75;;;11.91
13304;BMP280;6720;51.958;4.540;2022-12-29T00:03:38;99651.81;;;11.90
13304;BMP280;6720;51.958;4.540;2022-12-29T00:06:04;99637.50;;;11.77
13304;BMP280;6720;51.958;4.540;2022-12-29T00:08:29;99638.16;;;11.82
13304;BMP280;6720;51.958;4.540;2022-12-29T00:11:15;99637.66;;;11.94
13304;BMP280;6720;51.958;4.540;2022-12-29T00:13:41;99637.66;;;11.94
13304;BMP280;6720;51.958;4.540;2022-12-29T00:16:26;99646.13;;;12.01
13304;BMP280;6720;51.958;4.540;2022-12-29T00:18:52;99635.81;;;11.96
13304;BMP280;6720;51.958;4.540;2022-12-29T00:21:20;99616.28;;;12.03
13304;BMP280;6720;51.958;4.540;2022-12-29T00:24:04;99609.59;;;11.96
13304;BMP280;6720;51.958;4.540;2022-12-29T00:26:59;99605.78;;;12.03
13304;BMP280;6720;51.958;4.540;2022-12-29T00:29:51;99620.75;;;12.01
13304;BMP280;6720;51.958;4.540;2022-12-29T00:32:35;99607.25;;;12.10
13304;BMP280;6720;51.958;4.540;2022-12-29T00:35:37;99605.72;;;12.05
13304;BMP280;6720;51.958;4.540;2022-12-29T00:38:05;99609.16;;;12.07
13304;BMP280;6720;51.958;4.540;2022-12-29T00:40:51;99590.59;;;11.91
13304;BMP280;6720;51.958;4.540;2022-12-29T00:43:35;99602.88;;;11.89
13304;BMP280;6720;51.958;4.540;2022-12-29T00:46:20;99598.56;;;11.88
13304;BMP280;6720;51.958;4.540;2022-12-29T00:48:45;99587.78;;;11.74
13304;BMP280;6720;51.958;4.540;2022-12-29T00:51:29;99597.50;;;11.72
13304;BMP280;6720;51.958;4.540;2022-12-29T00:53:55;99588.72;;;11.73
13304;BMP280;6720;51.958;4.540;2022-12-29T00:56:20;99608.78;;;11.74
13304;BMP280;6720;51.958;4.540;2022-12-29T00:58:46;99605.25;;;11.75
13304;BMP280;6720;51.958;4.540;2022-12-29T01:01:11;99592.22;;;11.52
13304;BMP280;6720;51.958;4.540;2022-12-29T01:03:37;99588.84;;;11.49
13304;BMP280;6720;51.958;4.540;2022-12-29T01:06:05;99595.88;;;11.48
13304;BMP280;6720;51.958;4.540;2022-12-29T01:08:31;99609.84;;;11.47
13304;BMP280;6720;51.958;4.540;2022-12-29T01:11:11;99594.25;;;11.44
13304;BMP280;6720;51.958;4.540;2022-12-29T01:13:37;99583.88;;;11.43
13304;BMP280;6720;51.958;4.540;2022-12-29T01:16:07;99586.50;;;11.43
13304;BMP280;6720;51.958;4.540;2022-12-29T01:18:33;99575.25;;;11.39
13304;BMP280;6720;51.958;4.540;2022-12-29T01:21:00;99606.69;;;11.39
13304;BMP280;6720;51.958;4.540;2022-12-29T01:23:25;99603.03;;;11.43
13304;BMP280;6720;51.958;4.540;2022-12-29T01:25:51;99608.88;;;11.50
13304;BMP280;6720;51.958;4.540;2022-12-29T01:28:16;99596.81;;;11.46
13304;BMP280;6720;51.958;4.540;2022-12-29T01:30:42;99596.22;;;11.39
13304;BMP280;6720;51.958;4.540;2022-12-29T01:33:07;99606.47;;;11.45
13304;BMP280;6720;51.958;4.540;2022-12-29T01:35:32;99593.44;;;11.44
13304;BMP280;6720;51.958;4.540;2022-12-29T01:37:58;99588.13;;;11.45
13304;BMP280;6720;51.958;4.540;2022-12-29T01:40:24;99593.44;;;11.44
13304;BMP280;6720;51.958;4.540;2022-12-29T01:42:49;99591.78;;;11.41
13304;BMP280;6720;51.958;4.540;2022-12-29T01:45:17;99594.25;;;11.44
13304;BMP280;6720;51.958;4.540;2022-12-29T01:47:50;99582.94;;;11.44
13304;BMP280;6720;51.958;4.540;2022-12-29T01:50:23;99592.81;;;11.37
13304;BMP280;6720;51.958;4.540;2022-12-29T01:53:02;99586.50;;;11.43
13304;BMP280;6720;51.958;4.540;2022-12-29T01:55:32;99603.03;;;11.43
13304;BMP280;6720;51.958;4.540;2022-12-29T01:58:01;99580.16;;;11.48
13304;BMP280;6720;51.958;4.540;2022-12-29T02:00:27;99602.91;;;11.46
13304;BMP280;6720;51.958;4.540;2022-12-29T02:02:53;99598.28;;;11.53
13304;BMP280;6720;51.958;4.540;2022-12-29T02:07:56;99596.34;;;11.58
13304;BMP280;6720;51.958;4.540;2022-12-29T02:10:25;99601.72;;;11.55
13304;BMP280;6720;51.958;4.540;2022-12-29T02:12:51;99609.84;;;11.47
13304;BMP280;6720;51.958;4.540;2022-12-29T02:15:31;99577.38;;;11.51
13304;BMP280;6720;51.958;4.540;2022-12-29T02:18:18;99584.19;;;11.55
13304;BMP280;6720;51.958;4.540;2022-12-29T02:27:04;99596.97;;;11.43
13304;BMP280;6720;51.958;4.540;2022-12-29T02:32:08;99595.38;;;11.60
13304;BMP280;6720;51.958;4.540;2022-12-29T02:34:49;99574.16;;;11.66
13304;BMP280;6720;51.958;4.540;2022-12-29T02:37:31;99599.91;;;11.55
13304;BMP280;6720;51.958;4.540;2022-12-29T02:42:52;99628.91;;;11.52
13304;BMP280;6720;51.958;4.540;2022-12-29T02:53:18;99579.81;;;11.56
13304;BMP280;6720;51.958;4.540;2022-12-29T02:56:05;99594.13;;;11.47
13304;BMP280;6720;51.958;4.540;2022-12-29T02:58:34;99579.66;;;11.39
13304;BMP280;6720;51.958;4.540;2022-12-29T03:10:52;99586.09;;;11.52
13304;BMP280;6720;51.958;4.540;2022-12-29T03:13:08;99569.78;;;11.45
13304;BMP280;6720;51.958;4.540;2022-12-29T03:16:32;99575.91;;;11.44
13304;BMP280;6720;51.958;4.540;2022-12-29T03:19:06;99561.00;;;11.46
13304;BMP280;6720;51.958;4.540;2022-12-29T03:21:42;99581.84;;;11.49
13304;BMP280;6720;51.958;4.540;2022-12-29T03:24:29;99560.41;;;11.40
13304;BMP280;6720;51.958;4.540;2022-12-29T03:26:58;99560.59;;;11.35
13304;BMP280;6720;51.958;4.540;2022-12-29T03:29:27;99550.91;;;11.37
13304;BMP280;6720;51.958;4.540;2022-12-29T03:31:53;99568.00;;;11.46
13304;BMP280;6720;51.958;4.540;2022-12-29T03:34:20;99561.97;;;11.44
13304;BMP280;6720;51.958;4.540;2022-12-29T03:36:57;99564.84;;;11.38
13304;BMP280;6720;51.958;4.540;2022-12-29T03:39:25;99578.91;;;11.35
13304;BMP280;6720;51.958;4.540;2022-12-29T03:41:55;99584.97;;;11.37
13304;BMP280;6720;51.958;4.540;2022-12-29T03:44:32;99577.88;;;11.39
13304;BMP280;6720;51.958;4.540;2022-12-29T03:46:58;99579.56;;;11.40
13304;BMP280;6720;51.958;4.540;2022-12-29T03:49:23;99580.75;;;11.33
13304;BMP280;6720;51.958;4.540;2022-12-29T03:51:48;99616.34;;;11.39
13304;BMP280;6720;51.958;4.540;2022-12-29T03:54:14;99600.97;;;11.29
13304;BMP280;6720;51.958;4.540;2022-12-29T03:56:39;99591.47;;;11.27
13304;BMP280;6720;51.958;4.540;2022-12-29T03:59:05;99592.94;;;11.34
13304;BMP280;6720;51.958;4.540;2022-12-29T04:01:30;99582.69;;;11.28
13304;BMP280;6720;51.958;4.540;2022-12-29T04:03:55;99584.38;;;11.29
13304;BMP280;6720;51.958;4.540;2022-12-29T04:06:21;99595.78;;;11.28
13304;BMP280;6720;51.958;4.540;2022-12-29T04:08:46;99614.59;;;11.16
13304;BMP280;6720;51.958;4.540;2022-12-29T04:11:11;99576.78;;;11.23
13304;BMP280;6720;51.958;4.540;2022-12-29T04:13:37;99591.69;;;11.21
13304;BMP280;6720;51.958;4.540;2022-12-29T04:16:06;99610.09;;;11.19
13304;BMP280;6720;51.958;4.540;2022-12-29T04:18:31;99618.16;;;11.15
13304;BMP280;6720;51.958;4.540;2022-12-29T04:20:57;99595.84;;;11.05
13304;BMP280;6720;51.958;4.540;2022-12-29T04:23:25;99599.25;;;11.07
13304;BMP280;6720;51.958;4.540;2022-12-29T04:25:51;99597.69;;;11.03
13304;BMP280;6720;51.958;4.540;2022-12-29T04:28:16;99601.91;;;10.84
13304;BMP280;6720;51.958;4.540;2022-12-29T04:30:43;99582.88;;;10.79
13304;BMP280;6720;51.958;4.540;2022-12-29T04:33:10;99585.34;;;10.83
13304;BMP280;6720;51.958;4.540;2022-12-29T04:35:35;99595.91;;;10.80
13304;BMP280;6720;51.958;4.540;2022-12-29T04:38:01;99609.16;;;10.76
13304;BMP280;6720;51.958;4.540;2022-12-29T04:40:26;99624.88;;;10.76
13304;BMP280;6720;51.958;4.540;2022-12-29T04:42:51;99595.31;;;10.74
13304;BMP280;6720;51.958;4.540;2022-12-29T04:45:17;99599.50;;;10.78
13304;BMP280;6720;51.958;4.540;2022-12-29T04:47:42;99616.00;;;10.80
13304;BMP280;6720;51.958;4.540;2022-12-29T04:50:08;99622.16;;;10.79
13304;BMP280;6720;51.958;4.540;2022-12-29T04:52:34;99626.34;;;10.83
13304;BMP280;6720;51.958;4.540;2022-12-29T04:54:59;99626.59;;;10.77
13304;BMP280;6720;51.958;4.540;2022-12-29T04:57:25;99630.81;;;10.81
13304;BMP280;6720;51.958;4.540;2022-12-29T04:59:50;99643.03;;;10.80
13304;BMP280;6720;51.958;4.540;2022-12-29T05:02:16;99641.59;;;10.72
13304;BMP280;6720;51.958;4.540;2022-12-29T05:04:42;99642.34;;;10.52
13304;BMP280;6720;51.958;4.540;2022-12-29T05:07:08;99606.69;;;10.50
13304;BMP280;6720;51.958;4.540;2022-12-29T05:09:33;99634.66;;;10.48
13304;BMP280;6720;51.958;4.540;2022-12-29T05:11:59;99640.84;;;10.45
13304;BMP280;6720;51.958;4.540;2022-12-29T05:14:24;99636.44;;;10.46
13304;BMP280;6720;51.958;4.540;2022-12-29T05:16:50;99634.66;;;10.48
13304;BMP280;6720;51.958;4.540;2022-12-29T05:19:15;99644.19;;;10.49
13304;BMP280;6720;51.958;4.540;2022-12-29T05:21:41;99660.22;;;10.40
13304;BMP280;6720;51.958;4.540;2022-12-29T05:24:07;99643.50;;;10.44
13304;BMP280;6720;51.958;4.540;2022-12-29T05:26:32;99627.06;;;10.40
13304;BMP280;6720;51.958;4.540;2022-12-29T05:28:58;99653.91;;;10.45
13304;BMP280;6720;51.958;4.540;2022-12-29T05:31:25;99651.25;;;10.47
13304;BMP280;6720;51.958;4.540;2022-12-29T05:33:50;99645.09;;;10.48
13304;BMP280;6720;51.958;4.540;2022-12-29T05:36:16;99643.97;;;10.55
13304;BMP280;6720;51.958;4.540;2022-12-29T05:38:41;99654.56;;;10.52
13304;BMP280;6720;51.958;4.540;2022-12-29T05:41:07;99645.22;;;10.45
13304;BMP280;6720;51.958;4.540;2022-12-29T05:43:32;99664.44;;;10.44
13304;BMP280;6720;51.958;4.540;2022-12-29T05:45:57;99663.81;;;10.37
13304;BMP280;6720;51.958;4.540;2022-12-29T05:48:23;99667.25;;;10.38
13304;BMP280;6720;51.958;4.540;2022-12-29T05:50:49;99661.34;;;10.33
13304;BMP280;6720;51.958;4.540;2022-12-29T05:53:15;99671.53;;;10.40
13304;BMP280;6720;51.958;4.540;2022-12-29T05:55:41;99665.16;;;10.47
13304;BMP280;6720;51.958;4.540;2022-12-29T05:58:06;99672.50;;;10.38
13304;BMP280;6720;51.958;4.540;2022-12-29T06:00:31;99655.25;;;10.32
13304;BMP280;6720;51.958;4.540;2022-12-29T06:02:57;99667.53;;;10.30
13304;BMP280;6720;51.958;4.540;2022-12-29T06:05:22;99668.16;;;10.37
13304;BMP280;6720;51.958;4.540;2022-12-29T06:07:48;99677.91;;;10.33
13304;BMP280;6720;51.958;4.540;2022-12-29T06:10:13;99677.72;;;10.38
13304;BMP280;6720;51.958;4.540;2022-12-29T06:12:39;99672.66;;;10.33
13304;BMP280;6720;51.958;4.540;2022-12-29T06:15:05;99683.97;;;10.34
13304;BMP280;6720;51.958;4.540;2022-12-29T06:17:30;99686.53;;;10.35
13304;BMP280;6720;51.958;4.540;2022-12-29T06:19:55;99691.91;;;10.31
13304;BMP280;6720;51.958;4.540;2022-12-29T06:22:21;99686.53;;;10.35
13304;BMP280;6720;51.958;4.540;2022-12-29T06:24:46;99668.16;;;10.37
13304;BMP280;6720;51.958;4.540;2022-12-29T06:27:12;99678.53;;;10.40
13304;BMP280;6720;51.958;4.540;2022-12-29T06:29:38;99671.59;;;10.39
13304;BMP280;6720;51.958;4.540;2022-12-29T06:32:06;99681.00;;;10.44
13304;BMP280;6720;51.958;4.540;2022-12-29T06:34:31;99666.25;;;10.42
13304;BMP280;6720;51.958;4.540;2022-12-29T06:36:57;99680.34;;;10.38
13304;BMP280;6720;51.958;4.540;2022-12-29T06:39:22;99684.56;;;10.42
13304;BMP280;6720;51.958;4.540;2022-12-29T06:41:48;99685.16;;;10.50
13304;BMP280;6720;51.958;4.540;2022-12-29T06:44:13;99678.53;;;10.40
13304;BMP280;6720;51.958;4.540;2022-12-29T06:46:38;99677.22;;;10.27
13304;BMP280;6720;51.958;4.540;2022-12-29T06:49:04;99681.56;;;10.28
13304;BMP280;6720;51.958;4.540;2022-12-29T06:51:29;99688.56;;;10.27
13304;BMP280;6720;51.958;4.540;2022-12-29T06:53:55;99686.94;;;10.23
13304;BMP280;6720;51.958;4.540;2022-12-29T06:56:20;99681.09;;;10.17
13304;BMP280;6720;51.958;4.540;2022-12-29T06:58:45;99686.41;;;10.14
13304;BMP280;6720;51.958;4.540;2022-12-29T07:01:11;99688.22;;;10.12
13304;BMP280;6720;51.958;4.540;2022-12-29T07:03:36;99695.34;;;10.07
13304;BMP280;6720;51.958;4.540;2022-12-29T07:06:02;99690.28;;;10.01
13304;BMP280;6720;51.958;4.540;2022-12-29T07:08:27;99692.78;;;10.05
13304;BMP280;6720;51.958;4.540;2022-12-29T07:10:53;99703.47;;;9.98
13304;BMP280;6720;51.958;4.540;2022-12-29T07:13:18;99697.34;;;9.99
13304;BMP280;6720;51.958;4.540;2022-12-29T07:15:43;99699.84;;;10.02
13304;BMP280;6720;51.958;4.540;2022-12-29T07:18:09;99699.91;;;10.00
13304;BMP280;6720;51.958;4.540;2022-12-29T07:20:34;99715.53;;;10.02
13304;BMP280;6720;51.958;4.540;2022-12-29T07:23:00;99702.34;;;10.06
13304;BMP280;6720;51.958;4.540;2022-12-29T07:25:25;99708.44;;;10.07
13304;BMP280;6720;51.958;4.540;2022-12-29T07:27:50;99705.50;;;10.16
13304;BMP280;6720;51.958;4.540;2022-12-29T07:30:16;99687.16;;;10.17
13304;BMP280;6720;51.958;4.540;2022-12-29T07:32:41;99696.69;;;10.20
13304;BMP280;6720;51.958;4.540;2022-12-29T07:35:07;99691.44;;;10.20
13304;BMP280;6720;51.958;4.540;2022-12-29T07:37:33;99698.16;;;10.27
13304;BMP280;6720;51.958;4.540;2022-12-29T07:40:00;99698.16;;;10.27
13304;BMP280;6720;51.958;4.540;2022-12-29T07:42:25;99698.28;;;10.24
13304;BMP280;6720;51.958;4.540;2022-12-29T07:44:51;99707.56;;;10.32
13304;BMP280;6720;51.958;4.540;2022-12-29T07:47:16;99711.94;;;10.32
13304;BMP280;6720;51.958;4.540;2022-12-29T07:49:41;99679.66;;;10.33
13304;BMP280;6720;51.958;4.540;2022-12-29T07:52:07;99703.19;;;10.33
13304;BMP280;6720;51.958;4.540;2022-12-29T07:54:32;99708.22;;;10.39
13304;BMP280;6720;51.958;4.540;2022-12-29T07:56:59;99705.53;;;10.40
13304;BMP280;6720;51.958;4.540;2022-12-29T07:59:26;99696.56;;;10.47
13304;BMP280;6720;51.958;4.540;2022-12-29T08:01:51;99710.66;;;10.43
13304;BMP280;6720;51.958;4.540;2022-12-29T08:04:17;99699.94;;;10.51
13304;BMP280;6720;51.958;4.540;2022-12-29T08:06:42;99689.19;;;10.58
13304;BMP280;6720;51.958;4.540;2022-12-29T08:09:08;99697.34;;;10.51
13304;BMP280;6720;51.958;4.540;2022-12-29T08:11:34;99709.28;;;10.58
13304;BMP280;6720;51.958;4.540;2022-12-29T08:13:59;99705.97;;;10.53
13304;BMP280;6720;51.958;4.540;2022-12-29T08:16:24;99704.06;;;10.58
13304;BMP280;6720;51.958;4.540;2022-12-29T08:18:50;99712.94;;;10.54
13304;BMP280;6720;51.958;4.540;2022-12-29T08:21:15;99712.41;;;10.44
13304;BMP280;6720;51.958;4.540;2022-12-29T08:23:40;99714.72;;;10.52
13304;BMP280;6720;51.958;4.540;2022-12-29T08:26:06;99716.72;;;10.45
13304;BMP280;6720;51.958;4.540;2022-12-29T08:28:32;99722.91;;;10.43
13304;BMP280;6720;51.958;4.540;2022-12-29T08:30:59;99744.66;;;10.43
13304;BMP280;6720;51.958;4.540;2022-12-29T08:33:25;99728.44;;;10.34
13304;BMP280;6720;51.958;4.540;2022-12-29T08:35:51;99738.28;;;10.26
13304;BMP280;6720;51.958;4.540;2022-12-29T08:38:16;99743.47;;;10.27
13304;BMP280;6720;51.958;4.540;2022-12-29T08:40:43;99754.94;;;10.23
13304;BMP280;6720;51.958;4.540;2022-12-29T08:43:08;99764.75;;;10.17
13304;BMP280;6720;51.958;4.540;2022-12-29T08:45:34;99759.91;;;10.05
13304;BMP280;6720;51.958;4.540;2022-12-29T08:47:59;99765.22;;;10.02
13304;BMP280;6720;51.958;4.540;2022-12-29T08:50:25;99778.25;;;10.03
13304;BMP280;6720;51.958;4.540;2022-12-29T08:52:50;99784.59;;;9.95
13304;BMP280;6720;51.958;4.540;2022-12-29T08:55:16;99768.66;;;10.30
13304;BMP280;6720;51.958;4.540;2022-12-29T08:57:41;99786.09;;;10.03
13304;BMP280;6720;51.958;4.540;2022-12-29T09:00:07;99817.69;;;9.96
13304;BMP280;6720;51.958;4.540;2022-12-29T09:02:33;99807.22;;;9.96
13304;BMP280;6720;51.958;4.540;2022-12-29T09:04:59;99799.47;;;9.93
13304;BMP280;6720;51.958;4.540;2022-12-29T09:07:25;99800.59;;;9.86
13304;BMP280;6720;51.958;4.540;2022-12-29T09:09:52;99799.06;;;9.79
13304;BMP280;6720;51.958;4.540;2022-12-29T09:12:17;99775.75;;;9.71
13304;BMP280;6720;51.958;4.540;2022-12-29T09:14:43;99807.69;;;9.81
13304;BMP280;6720;51.958;4.540;2022-12-29T09:17:10;99807.50;;;9.87
13304;BMP280;6720;51.958;4.540;2022-12-29T09:19:54;99822.28;;;9.88
13304;BMP280;6720;51.958;4.540;2022-12-29T09:22:20;99816.16;;;9.89
13304;BMP280;6720;51.958;4.540;2022-12-29T09:24:45;99823.28;;;9.84
13304;BMP280;6720;51.958;4.540;2022-12-29T09:27:11;99812.16;;;9.77
13304;BMP280;6720;51.958;4.540;2022-12-29T09:29:36;99842.19;;;9.92
13304;BMP280;6720;51.958;4.540;2022-12-29T09:32:02;99827.44;;;9.91
13304;BMP280;6720;51.958;4.540;2022-12-29T09:34:27;99847.50;;;9.89
13304;BMP280;6720;51.958;4.540;2022-12-29T09:36:52;99839.41;;;9.98
13304;BMP280;6720;51.958;4.540;2022-12-29T09:39:18;99844.84;;;9.90
13304;BMP280;6720;51.958;4.540;2022-12-29T09:41:55;99868.16;;;9.98
13304;BMP280;6720;51.958;4.540;2022-12-29T09:44:27;99861.72;;;10.09
13304;BMP280;6720;51.958;4.540;2022-12-29T09:46:55;99879.19;;;10.09
13304;BMP280;6720;51.958;4.540;2022-12-29T09:49:40;99876.41;;;10.13
13304;BMP280;6720;51.958;4.540;2022-12-29T09:52:17;99860.31;;;9.98
13304;BMP280;6720;51.958;4.540;2022-12-29T09:55:10;99890.44;;;10.11
13304;BMP280;6720;51.958;4.540;2022-12-29T09:58:00;99871.16;;;10.15
13304;BMP280;6720;51.958;4.540;2022-12-29T10:01:36;99891.03;;;10.20
13304;BMP280;6720;51.958;4.540;2022-12-29T10:03:50;99911.00;;;10.23
13304;BMP280;6720;51.958;4.540;2022-12-29T10:09:33;99925.75;;;10.25
13304;BMP280;6720;51.958;4.540;2022-12-29T10:12:22;99921.28;;;10.29
13304;BMP280;6720;51.958;4.540;2022-12-29T10:25:42;99958.00;;;10.53
13304;BMP280;6720;51.958;4.540;2022-12-29T10:28:37;99972.66;;;10.59
13304;BMP280;6720;51.958;4.540;2022-12-29T10:31:17;99976.00;;;10.64
13304;BMP280;6720;51.958;4.540;2022-12-29T10:33:49;99975.56;;;10.77
13304;BMP280;6720;51.958;4.540;2022-12-29T10:36:19;99978.06;;;11.08
13304;BMP280;6720;51.958;4.540;2022-12-29T10:38:57;99978.94;;;12.31
13304;BMP280;6720;51.958;4.540;2022-12-29T10:41:28;99967.78;;;12.48
13304;BMP280;6720;51.958;4.540;2022-12-29T10:44:00;99983.38;;;12.06
13304;BMP280;6720;51.958;4.540;2022-12-29T10:46:32;99986.06;;;12.72
13304;BMP280;6720;51.958;4.540;2022-12-29T10:48:59;99978.75;;;11.65
13304;BMP280;6720;51.958;4.540;2022-12-29T10:51:38;99984.53;;;11.49
13304;BMP280;6720;51.958;4.540;2022-12-29T10:54:18;99992.81;;;13.22
13304;BMP280;6720;51.958;4.540;2022-12-29T10:57:03;100002.31;;;13.46
13304;BMP280;6720;51.958;4.540;2022-12-29T10:59:35;99993.13;;;12.49
13304;BMP280;6720;51.958;4.540;2022-12-29T11:07:08;100027.50;;;11.95
13304;BMP280;6720;51.958;4.540;2022-12-29T11:09:36;100029.72;;;11.81
13304;BMP280;6720;51.958;4.540;2022-12-29T11:12:35;100034.28;;;11.50
13304;BMP280;6720;51.958;4.540;2022-12-29T11:17:50;100034.69;;;11.38
13304;BMP280;6720;51.958;4.540;2022-12-29T11:20:36;100021.19;;;11.24
13304;BMP280;6720;51.958;4.540;2022-12-29T11:23:04;100042.91;;;11.27
13304;BMP280;6720;51.958;4.540;2022-12-29T11:25:30;100043.78;;;11.26
13304;BMP280;6720;51.958;4.540;2022-12-29T11:27:57;100037.94;;;11.72
13304;BMP280;6720;51.958;4.540;2022-12-29T11:30:26;100057.03;;;11.76
13304;BMP280;6720;51.958;4.540;2022-12-29T11:32:53;100043.97;;;11.48
13304;BMP280;6720;51.958;4.540;2022-12-29T11:35:39;100051.03;;;11.46
13304;BMP280;6720;51.958;4.540;2022-12-29T11:38:18;100054.69;;;11.41
13304;BMP280;6720;51.958;4.540;2022-12-29T11:40:47;100060.19;;;11.33
13304;BMP280;6720;51.958;4.540;2022-12-29T11:43:30;100059.38;;;11.31
13304;BMP280;6720;51.958;4.540;2022-12-29T11:45:59;100058.28;;;11.38
13304;BMP280;6720;51.958;4.540;2022-12-29T11:48:29;100063.47;;;11.67
13304;BMP280;6720;51.958;4.540;2022-12-29T11:50:58;100064.13;;;11.46
13304;BMP280;6720;51.958;4.540;2022-12-29T11:53:32;100072.69;;;11.51
13304;BMP280;6720;51.958;4.540;2022-12-29T11:56:03;100069.25;;;11.77
13304;BMP280;6720;51.958;4.540;2022-12-29T11:58:32;100074.25;;;12.55
13304;BMP280;6720;51.958;4.540;2022-12-29T12:01:05;100069.31;;;12.00
13304;BMP280;6720;51.958;4.540;2022-12-29T12:03:35;100054.69;;;11.68
13304;BMP280;6720;51.958;4.540;2022-12-29T12:06:03;100079.06;;;11.70
13304;BMP280;6720;51.958;4.540;2022-12-29T12:08:53;100076.09;;;11.81
13304;BMP280;6720;51.958;4.540;2022-12-29T12:11:29;100074.63;;;11.72
13304;BMP280;6720;51.958;4.540;2022-12-29T12:17:01;100056.22;;;11.48
13304;BMP280;6720;51.958;4.540;2022-12-29T12:19:49;100069.03;;;11.55
13304;BMP280;6720;51.958;4.540;2022-12-29T12:22:29;100083.59;;;11.65
13304;BMP280;6720;51.958;4.540;2022-12-29T12:25:01;100082.25;;;12.04
13304;BMP280;6720;51.958;4.540;2022-12-29T12:27:39;100084.72;;;12.56
13304;BMP280;6720;51.958;4.540;2022-12-29T12:35:34;100089.44;;;12.93
13304;BMP280;6720;51.958;4.540;2022-12-29T12:51:26;100079.28;;;11.64
13304;BMP280;6720;51.958;4.540;2022-12-29T12:56:38;100108.63;;;11.75
13304;BMP280;6720;51.958;4.540;2022-12-29T13:02:29;100111.34;;;11.72
13304;BMP280;6720;51.958;4.540;2022-12-29T13:16:27;100095.25;;;11.55
13304;BMP280;6720;51.958;4.540;2022-12-29T13:19:04;100109.38;;;11.51
13304;BMP280;6720;51.958;4.540;2022-12-29T13:27:30;100109.78;;;11.39
13304;BMP280;6720;51.958;4.540;2022-12-29T13:30:04;100111.22;;;11.21
13304;BMP280;6720;51.958;4.540;2022-12-29T13:35:54;100132.59;;;11.08
13304;BMP280;6720;51.958;4.540;2022-12-29T13:38:25;100124.03;;;11.03
13304;BMP280;6720;51.958;4.540;2022-12-29T13:41:03;100147.09;;;10.90
13304;BMP280;6720;51.958;4.540;2022-12-29T13:43:31;100134.03;;;10.89
13304;BMP280;6720;51.958;4.540;2022-12-29T13:46:05;100136.69;;;10.87
13304;BMP280;6720;51.958;4.540;2022-12-29T13:48:53;100144.28;;;10.67
13304;BMP280;6720;51.958;4.540;2022-12-29T13:51:21;100122.56;;;10.64
13304;BMP280;6720;51.958;4.540;2022-12-29T13:57:04;100113.72;;;10.68
13304;BMP280;6720;51.958;4.540;2022-12-29T13:59:50;100124.00;;;10.74
13304;BMP280;6720;51.958;4.540;2022-12-29T14:05:03;100118.69;;;10.77
13304;BMP280;6720;51.958;4.540;2022-12-29T14:07:29;100128.31;;;10.76
13304;BMP280;6720;51.958;4.540;2022-12-29T14:10:01;100126.72;;;10.71
13304;BMP280;6720;51.958;4.540;2022-12-29T14:12:38;100131.88;;;10.74
13304;BMP280;6720;51.958;4.540;2022-12-29T14:17:36;100120.94;;;10.60
13304;BMP280;6720;51.958;4.540;2022-12-29T14:20:04;100135.13;;;10.51
13304;BMP280;6720;51.958;4.540;2022-12-29T14:22:33;100129.59;;;10.62
13304;BMP280;6720;51.958;4.540;2022-12-29T14:24:58;100131.31;;;10.63
13304;BMP280;6720;51.958;4.540;2022-12-29T14:29:55;100134.06;;;10.58
13304;BMP280;6720;51.958;4.540;2022-12-29T14:34:52;100123.84;;;10.49
13304;BMP280;6720;51.958;4.540;2022-12-29T14:37:33;100152.16;;;10.66
13304;BMP280;6720;51.958;4.540;2022-12-29T14:42:49;100147.78;;;10.66
13304;BMP280;6720;51.958;4.540;2022-12-29T14:47:46;100153.28;;;10.57
13304;BMP280;6720;51.958;4.540;2022-12-29T14:53:00;100138.44;;;10.58
13304;BMP280;6720;51.958;4.540;2022-12-29T14:55:39;100159.28;;;10.61
13304;BMP280;6720;51.958;4.540;2022-12-29T14:58:13;100149.63;;;10.63
13304;BMP280;6720;51.958;4.540;2022-12-29T15:00:40;100145.47;;;10.56
13304;BMP280;6720;51.958;4.540;2022-12-29T15:03:53;100155.84;;;10.59
13304;BMP280;6720;51.958;4.540;2022-12-29T15:05:55;100161.16;;;10.56
13304;BMP280;6720;51.958;4.540;2022-12-29T15:08:24;100168.22;;;10.54
13304;BMP280;6720;51.958;4.540;2022-12-29T15:11:17;100173.53;;;10.51
13304;BMP280;6720;51.958;4.540;2022-12-29T15:13:44;100175.13;;;10.56
13304;BMP280;6720;51.958;4.540;2022-12-29T15:16:26;100164.78;;;10.52
13304;BMP280;6720;51.958;4.540;2022-12-29T15:18:54;100184.84;;;10.51
13304;BMP280;6720;51.958;4.540;2022-12-29T15:21:45;100178.84;;;10.48
13304;BMP280;6720;51.958;4.540;2022-12-29T15:24:11;100190.03;;;10.53
13304;BMP280;6720;51.958;4.540;2022-12-29T15:26:39;100179.91;;;10.41
13304;BMP280;6720;51.958;4.540;2022-12-29T15:29:05;100195.31;;;10.51
13304;BMP280;6720;51.958;4.540;2022-12-29T15:31:30;100187.38;;;10.54
13304;BMP280;6720;51.958;4.540;2022-12-29T15:34:10;100209.38;;;10.47
13304;BMP280;6720;51.958;4.540;2022-12-29T15:36:40;100191.09;;;10.46
13304;BMP280;6720;51.958;4.540;2022-12-29T15:39:20;100194.69;;;10.42
13304;BMP280;6720;51.958;4.540;2022-12-29T15:44:48;100196.53;;;10.38
13304;BMP280;6720;51.958;4.540;2022-12-29T15:47:18;100211.22;;;10.44
13304;BMP280;6720;51.958;4.540;2022-12-29T15:49:48;100201.06;;;10.33
13304;BMP280;6720;51.958;4.540;2022-12-29T15:52:18;100215.16;;;10.28
13304;BMP280;6720;51.958;4.540;2022-12-29T15:54:45;100216.03;;;10.27
13304;BMP280;6720;51.958;4.540;2022-12-29T15:57:37;100226.66;;;10.21
13304;BMP280;6720;51.958;4.540;2022-12-29T16:00:03;100219.09;;;10.10
13304;BMP280;6720;51.958;4.540;2022-12-29T16:02:29;100224.22;;;10.13
13304;BMP280;6720;51.958;4.540;2022-12-29T16:04:55;100242.72;;;10.06
13304;BMP280;6720;51.958;4.540;2022-12-29T16:07:27;100244.44;;;10.07
13304;BMP280;6720;51.958;4.540;2022-12-29T16:09:59;100235.75;;;10.05
13304;BMP280;6720;51.958;4.540;2022-12-29T16:12:30;100231.34;;;10.07
13304;BMP280;6720;51.958;4.540;2022-12-29T16:14:58;100254.19;;;9.99
13304;BMP280;6720;51.958;4.540;2022-12-29T16:17:28;100247.22;;;9.99
13304;BMP280;6720;51.958;4.540;2022-12-29T16:20:00;100250.00;;;9.92
13304;BMP280;6720;51.958;4.540;2022-12-29T16:22:54;100253.44;;;9.94
13304;BMP280;6720;51.958;4.540;2022-12-29T16:25:40;100248.34;;;9.88
13304;BMP280;6720;51.958;4.540;2022-12-29T16:28:30;100235.41;;;9.82
13304;BMP280;6720;51.958;4.540;2022-12-29T16:31:05;100248.66;;;9.76
13304;BMP280;6720;51.958;4.540;2022-12-29T16:33:39;100228.28;;;9.52
13304;BMP280;6720;51.958;4.540;2022-12-29T16:36:27;100246.06;;;9.74
13304;BMP280;6720;51.958;4.540;2022-12-29T16:41:50;100255.94;;;9.62
13304;BMP280;6720;51.958;4.540;2022-12-29T16:44:28;100257.56;;;9.66
13304;BMP280;6720;51.958;4.540;2022-12-29T16:47:00;100263.81;;;9.59